Time;durP1;ratioP1;P1;durP2;ratioP2;P2;SDS_P1;SDS_P2;PMS_P1;PMS_P2;Temp;Humidity;BMP_temperature;BMP_pressure;BME280_temperature;BME280_humidity;BME280_pressure;Samples;Min_cycle;Max_cycle;Signal;HPM_P1;HPM_P2
2021/05/13 00:01:22;;;;;;;38.08;12.82;;;8.00;99.90;;;;;;5007033;28;20077;-69
2021/05/13 00:03:50;;;;;;;44.92;14.35;;;8.00;99.90;;;;;;4997515;28;20031;-69
2021/05/13 00:06:16;;;;;;;34.40;15.52;;;8.10;99.90;;;;;;5006463;28;20046;-69
2021/05/13 00:08:42;;;;;;;47.75;15.05;;;8.20;99.90;;;;;;5006616;28;20114;-69
2021/05/13 00:11:10;;;;;;;43.20;13.38;;;8.20;99.90;;;;;;5006154;28;20061;-69
2021/05/13 00:13:37;;;;;;;;;;;8.00;99.90;;;;;;4997474;28;20135;-69
2021/05/13 00:16:05;;;;;;;60.72;18.05;;;8.00;99.90;;;;;;5006470;28;19921;-69
2021/05/13 00:18:31;;;;;;;52.83;15.30;;;8.00;99.90;;;;;;5005051;28;20053;-69
2021/05/13 00:20:58;;;;;;;55.60;18.95;;;7.90;99.90;;;;;;5006197;28;20437;-69
2021/05/13 00:23:24;;;;;;;55.45;16.67;;;8.00;99.90;;;;;;5006700;28;20050;-69
2021/05/13 00:25:51;;;;;;;48.30;19.85;;;8.00;99.90;;;;;;5005617;28;20046;-69
2021/05/13 00:28:18;;;;;;;42.83;15.93;;;8.00;99.90;;;;;;5006093;28;20129;-69
2021/05/13 00:30:44;;;;;;;36.33;15.77;;;8.00;99.90;;;;;;5006036;28;20053;-69
2021/05/13 00:33:11;;;;;;;41.38;16.65;;;8.00;99.90;;;;;;5005824;28;20121;-69
2021/05/13 00:35:37;;;;;;;49.42;15.75;;;7.90;99.90;;;;;;5006327;28;20042;-69
2021/05/13 00:38:05;;;;;;;48.75;16.02;;;7.90;99.90;;;;;;5006006;28;20053;-69
2021/05/13 00:40:31;;;;;;;38.78;15.07;;;7.90;99.90;;;;;;5005131;28;20069;-69
2021/05/13 00:42:56;;;;;;;49.10;15.77;;;7.90;99.90;;;;;;5005687;28;20061;-69
2021/05/13 00:45:22;;;;;;;49.83;15.75;;;7.90;99.90;;;;;;5005756;28;20054;-69
2021/05/13 00:48:21;;;;;;;38.08;15.98;;;7.90;99.90;;;;;;5006132;28;20042;-69
2021/05/13 00:50:40;;;;;;;42.08;14.88;;;7.80;99.90;;;;;;5004796;28;20054;-69
2021/05/13 00:53:07;;;;;;;36.92;13.57;;;7.70;99.90;;;;;;5005386;28;20113;-68
2021/05/13 00:55:33;;;;;;;36.10;14.32;;;7.70;99.90;;;;;;4998699;28;20043;-69
2021/05/13 00:58:00;;;;;;;42.72;13.35;;;7.80;99.90;;;;;;5004221;28;20477;-69
2021/05/13 01:02:58;;;;;;;38.08;14.73;;;7.70;99.90;;;;;;5005828;28;20043;-69
2021/05/13 01:05:24;;;;;;;36.10;13.35;;;7.70;99.90;;;;;;5005618;28;20046;-69
2021/05/13 01:07:50;;;;;;;41.10;15.07;;;7.60;99.90;;;;;;5003756;28;20049;-69
2021/05/13 01:10:17;;;;;;;38.53;14.73;;;7.60;99.90;;;;;;5002437;28;20035;-69
2021/05/13 01:12:44;;;;;;;37.75;14.15;;;7.50;99.90;;;;;;5013203;28;20041;-69
2021/05/13 01:15:20;;;;;;;45.92;15.88;;;7.40;99.90;;;;;;4991206;28;20169;-69
2021/05/13 01:17:58;;;;;;;39.33;14.80;;;7.40;99.90;;;;;;4997764;28;20050;-69
2021/05/13 01:20:26;;;;;;;38.72;13.70;;;7.40;99.90;;;;;;4990608;28;20049;-68
2021/05/13 01:22:54;;;;;;;42.22;14.15;;;7.40;99.90;;;;;;4998963;28;20073;-68
2021/05/13 01:25:19;;;;;;;36.88;15.32;;;7.30;99.90;;;;;;5003791;28;20074;-68
2021/05/13 01:27:45;;;;;;;43.45;14.90;;;7.20;99.90;;;;;;5003888;28;20051;-69
2021/05/13 01:30:12;;;;;;;47.53;15.00;;;7.20;99.90;;;;;;5005420;28;20402;-68
2021/05/13 01:32:37;;;;;;;35.63;14.82;;;7.10;99.90;;;;;;5005225;28;20042;-68
2021/05/13 01:35:04;;;;;;;34.97;16.00;;;7.10;99.90;;;;;;5004503;28;20057;-68
2021/05/13 01:37:30;;;;;;;33.33;12.40;;;7.00;99.90;;;;;;5004735;28;20080;-69
2021/05/13 01:39:56;;;;;;;43.83;15.00;;;7.10;99.90;;;;;;5004205;28;20058;-69
2021/05/13 01:42:22;;;;;;;34.58;15.48;;;7.10;99.90;;;;;;4995456;28;20069;-69
2021/05/13 01:44:47;;;;;;;38.70;13.73;;;7.10;99.90;;;;;;5004547;28;20050;-69
2021/05/13 01:47:14;;;;;;;41.67;15.45;;;7.00;99.90;;;;;;5004403;28;20042;-68
2021/05/13 01:49:40;;;;;;;41.78;15.55;;;7.00;99.90;;;;;;5004378;28;20042;-68
2021/05/13 01:52:06;;;;;;;35.72;13.05;;;6.90;99.90;;;;;;5004320;28;20112;-69
2021/05/13 01:54:32;;;;;;;36.40;13.57;;;7.00;99.90;;;;;;5004147;28;20070;-68
2021/05/13 01:57:05;;;;;;;33.47;13.55;;;7.00;99.90;;;;;;5004448;28;20042;-68
2021/05/13 01:59:31;;;;;;;37.63;14.82;;;6.90;99.90;;;;;;5004461;28;20050;-68
2021/05/13 02:01:58;;;;;;;37.55;14.30;;;6.90;99.90;;;;;;5004125;28;20061;-68
2021/05/13 02:04:24;;;;;;;28.90;13.05;;;6.90;99.90;;;;;;5003916;28;20050;-68
2021/05/13 02:06:51;;;;;;;36.83;12.90;;;6.80;99.90;;;;;;5004701;28;20101;-69
2021/05/13 02:09:16;;;;;;;26.30;12.82;;;6.80;99.90;;;;;;4996674;28;20053;-68
2021/05/13 02:11:42;;;;;;;32.85;12.18;;;6.80;99.90;;;;;;5003878;28;20038;-68
2021/05/13 02:14:08;;;;;;;47.30;14.23;;;6.70;99.90;;;;;;4998601;28;20113;-68
2021/05/13 02:16:34;;;;;;;29.80;12.98;;;6.80;99.90;;;;;;5016574;28;20061;-68
2021/05/13 02:18:59;;;;;;;28.00;11.38;;;6.80;99.90;;;;;;5004633;28;20054;-68
2021/05/13 02:21:25;;;;;;;40.20;13.23;;;6.70;99.90;;;;;;5003954;28;20050;-68
2021/05/13 02:23:51;;;;;;;29.20;11.52;;;6.60;99.90;;;;;;5019283;28;20058;-68
2021/05/13 02:26:20;;;;;;;20.67;8.93;;;6.70;99.90;;;;;;5003439;28;20046;-68
2021/05/13 02:28:46;;;;;;;15.80;7.05;;;6.60;99.90;;;;;;4990233;28;20046;-70
2021/05/13 02:31:13;;;;;;;17.40;5.88;;;6.50;99.90;;;;;;5004509;28;20505;-68
2021/05/13 02:33:39;;;;;;;17.08;6.35;;;6.50;99.90;;;;;;5001629;28;20125;-67
2021/05/13 02:36:07;;;;;;;19.88;6.22;;;6.50;99.90;;;;;;5004249;28;20081;-67
2021/05/13 02:38:37;;;;;;;11.98;4.30;;;6.40;99.90;;;;;;5003747;28;20389;-68
2021/05/13 02:41:03;;;;;;;11.15;4.70;;;6.40;99.90;;;;;;5002322;28;20081;-68
2021/05/13 02:43:29;;;;;;;8.65;3.53;;;6.20;99.90;;;;;;5002459;28;20398;-68
2021/05/13 02:45:54;;;;;;;7.53;4.32;;;6.20;99.90;;;;;;5001629;28;20046;-68
2021/05/13 02:48:20;;;;;;;9.27;4.28;;;6.10;99.90;;;;;;5003510;28;20057;-68
2021/05/13 02:50:46;;;;;;;17.00;4.85;;;6.00;99.90;;;;;;4997038;28;20042;-68
2021/05/13 02:53:13;;;;;;;9.32;3.75;;;6.00;99.90;;;;;;5003284;28;20058;-68
2021/05/13 02:55:40;;;;;;;8.45;3.60;;;5.90;99.90;;;;;;5003577;28;20057;-69
2021/05/13 02:58:06;;;;;;;8.98;3.50;;;5.80;99.90;;;;;;4996356;28;20094;-69
2021/05/13 03:00:47;;;;;;;10.43;3.95;;;5.80;99.90;;;;;;5003467;28;20046;-68
2021/05/13 03:03:13;;;;;;;9.13;3.25;;;5.80;99.90;;;;;;5003396;28;20454;-68
2021/05/13 03:05:40;;;;;;;13.02;4.65;;;5.70;99.90;;;;;;5003242;28;20043;-68
2021/05/13 03:08:06;;;;;;;10.50;4.55;;;5.70;99.90;;;;;;5003562;28;20077;-69
2021/05/13 03:11:05;;;;;;;10.55;5.05;;;5.80;99.90;;;;;;5002142;28;20050;-68
2021/05/13 03:13:26;;;;;;;14.07;7.25;;;5.80;99.90;;;;;;4999352;28;20080;-68
2021/05/13 03:15:52;;;;;;;11.43;6.03;;;5.90;99.90;;;;;;5003368;28;20046;-68
2021/05/13 03:18:22;;;;;;;14.98;7.47;;;5.90;99.90;;;;;;5003102;28;20096;-68
2021/05/13 03:20:53;;;;;;;11.68;6.13;;;5.90;99.90;;;;;;5003108;28;20049;-68
2021/05/13 03:23:24;;;;;;;12.90;5.05;;;6.00;99.90;;;;;;5003639;28;20046;-68
2021/05/13 03:25:57;;;;;;;11.18;5.03;;;6.00;99.90;;;;;;5002820;28;20084;-68
2021/05/13 03:28:23;;;;;;;13.35;6.45;;;6.00;99.90;;;;;;5003610;28;20098;-68
2021/05/13 03:30:49;;;;;;;15.70;6.82;;;6.10;99.90;;;;;;5000715;28;20053;-68
2021/05/13 03:33:15;;;;;;;12.23;6.07;;;6.10;99.90;;;;;;5003110;28;20129;-68
2021/05/13 03:35:41;;;;;;;17.88;8.23;;;6.10;99.90;;;;;;5002954;28;20042;-68
2021/05/13 03:38:08;;;;;;;15.80;8.25;;;6.20;99.90;;;;;;5003325;28;20049;-68
2021/05/13 03:40:36;;;;;;;30.70;8.52;;;6.20;99.90;;;;;;5002707;28;20093;-68
2021/05/13 03:43:02;;;;;;;16.08;7.20;;;6.20;99.90;;;;;;5002966;28;20046;-68
2021/05/13 03:45:28;;;;;;;22.10;7.88;;;6.20;99.90;;;;;;5002978;28;20046;-68
2021/05/13 03:47:55;;;;;;;12.48;5.68;;;6.20;99.90;;;;;;5003247;28;20065;-67
2021/05/13 03:50:20;;;;;;;21.33;5.97;;;6.20;99.90;;;;;;5003350;28;20050;-67
2021/05/13 03:52:47;;;;;;;8.10;4.45;;;6.10;99.90;;;;;;5003081;28;20395;-67
2021/05/13 03:55:13;;;;;;;14.60;6.53;;;6.10;99.90;;;;;;5006193;28;20073;-67
2021/05/13 03:57:40;;;;;;;9.57;4.57;;;6.00;99.90;;;;;;5006562;28;20046;-67
2021/05/13 04:00:11;;;;;;;7.43;4.22;;;6.00;99.90;;;;;;4995872;28;20068;-66
2021/05/13 04:02:37;;;;;;;9.50;5.45;;;5.90;99.90;;;;;;5002595;28;20046;-67
2021/05/13 04:05:04;;;;;;;12.57;5.05;;;5.90;99.90;;;;;;5006934;28;20072;-67
2021/05/13 04:07:33;;;;;;;10.02;6.15;;;5.90;99.90;;;;;;5006396;28;20060;-68
2021/05/13 04:10:00;;;;;;;14.15;6.00;;;5.90;99.90;;;;;;4994506;28;20051;-67
2021/05/13 04:12:36;;;;;;;8.82;5.47;;;5.80;99.90;;;;;;5006189;28;20074;-66
2021/05/13 04:15:04;;;;;;;11.90;6.60;;;5.80;99.90;;;;;;5006047;28;20050;-67
2021/05/13 04:17:29;;;;;;;10.02;5.78;;;5.80;99.90;;;;;;5006465;28;20059;-68
2021/05/13 04:19:55;;;;;;;12.30;6.10;;;5.80;99.90;;;;;;5006147;28;20078;-67
2021/05/13 04:22:21;;;;;;;15.75;6.68;;;5.80;99.90;;;;;;5006318;28;20050;-67
2021/05/13 04:24:46;;;;;;;18.02;6.50;;;5.80;99.90;;;;;;4993675;28;20046;-67
2021/05/13 04:27:12;;;;;;;16.75;8.27;;;5.80;99.90;;;;;;5000922;28;20046;-67
2021/05/13 04:29:38;;;;;;;17.27;9.40;;;5.70;99.90;;;;;;4993918;28;20110;-68
2021/05/13 04:32:04;;;;;;;31.42;10.88;;;5.80;99.90;;;;;;5006014;28;20054;-67
2021/05/13 04:34:29;;;;;;;18.45;8.70;;;5.80;99.90;;;;;;5005856;28;20380;-67
2021/05/13 04:36:56;;;;;;;17.98;8.27;;;5.80;99.90;;;;;;5004316;28;20046;-67
2021/05/13 04:39:22;;;;;;;19.98;9.40;;;5.80;99.90;;;;;;5005234;28;20046;-67
2021/05/13 04:41:49;;;;;;;21.00;10.20;;;5.80;99.90;;;;;;5002589;28;20042;-67
2021/05/13 04:44:15;;;;;;;16.13;8.48;;;5.80;99.90;;;;;;5001789;28;20042;-67
2021/05/13 04:46:41;;;;;;;17.45;9.07;;;5.80;99.90;;;;;;4999073;28;20051;-67
2021/05/13 04:51:36;;;;;;;18.92;8.85;;;5.80;99.90;;;;;;5005551;28;20046;-68
2021/05/13 04:54:03;;;;;;;17.02;9.77;;;5.90;99.90;;;;;;5005976;28;20049;-67
2021/05/13 04:56:31;;;;;;;15.90;8.50;;;5.90;99.90;;;;;;5005073;28;20602;-67
2021/05/13 04:58:57;;;;;;;21.02;9.10;;;6.00;99.90;;;;;;5005244;28;20122;-67
2021/05/13 05:01:23;;;;;;;17.60;9.48;;;6.10;99.90;;;;;;5004972;28;20050;-67
2021/05/13 05:03:49;;;;;;;18.35;8.43;;;6.20;99.90;;;;;;5005104;28;20062;-67
2021/05/13 05:06:16;;;;;;;13.48;8.02;;;6.20;99.90;;;;;;5005159;28;20069;-67
2021/05/13 05:08:43;;;;;;;12.63;8.30;;;6.30;99.90;;;;;;4994481;28;20094;-67
2021/05/13 05:11:10;;;;;;;14.65;8.25;;;6.50;99.90;;;;;;4998697;28;20048;-67
2021/05/13 05:13:36;;;;;;;16.20;7.43;;;6.60;99.90;;;;;;5005902;28;20053;-68
2021/05/13 05:16:02;;;;;;;15.38;7.18;;;6.80;99.90;;;;;;4999333;28;20046;-68
2021/05/13 05:18:28;;;;;;;11.27;6.57;;;7.00;99.90;;;;;;5005483;28;20512;-68
2021/05/13 05:20:54;;;;;;;11.43;7.35;;;7.20;99.90;;;;;;5004809;28;20050;-68
2021/05/13 05:23:20;;;;;;;14.50;6.30;;;7.40;99.90;;;;;;5005002;28;20110;-68
2021/05/13 05:25:46;;;;;;;11.07;6.18;;;7.60;99.90;;;;;;5004592;28;20081;-68
2021/05/13 05:28:13;;;;;;;14.45;6.38;;;7.80;99.90;;;;;;5004855;28;20046;-68
2021/05/13 05:30:40;;;;;;;15.45;5.70;;;8.00;99.90;;;;;;5004960;28;20042;-68
2021/05/13 05:33:08;;;;;;;20.48;6.07;;;8.20;99.90;;;;;;5005089;28;20050;-68
2021/05/13 05:35:35;;;;;;;;;;;8.40;99.90;;;;;;5004959;28;20050;-68
2021/05/13 05:38:01;;;;;;;14.60;5.43;;;8.70;99.90;;;;;;5004702;28;19968;-68
2021/05/13 05:40:30;;;;;;;13.50;4.72;;;9.00;99.90;;;;;;4997732;28;20413;-68
2021/05/13 05:42:57;;;;;;;16.58;5.35;;;9.20;99.90;;;;;;5005086;28;20046;-68
2021/05/13 05:45:25;;;;;;;13.27;4.85;;;9.40;99.90;;;;;;4996686;28;20047;-68
2021/05/13 05:47:53;;;;;;;10.98;4.68;;;9.50;99.90;;;;;;5004668;28;20514;-68
2021/05/13 05:50:19;;;;;;;12.07;4.00;;;9.80;99.90;;;;;;5004580;28;20070;-68
2021/05/13 05:52:46;;;;;;;12.35;4.10;;;9.90;99.90;;;;;;5004351;28;20065;-68
2021/05/13 05:55:13;;;;;;;8.63;3.88;;;10.10;99.90;;;;;;5003961;28;20072;-68
2021/05/13 05:57:40;;;;;;;5.97;3.00;;;10.30;99.90;;;;;;5004163;28;20293;-69
2021/05/13 06:00:07;;;;;;;10.45;3.53;;;10.40;99.90;;;;;;4999973;28;20057;-68
2021/05/13 06:02:34;;;;;;;12.20;3.22;;;10.50;99.90;;;;;;5000876;28;20110;-68
2021/05/13 06:05:10;;;;;;;9.45;3.15;;;10.60;99.90;;;;;;5004210;28;20077;-67
2021/05/13 06:07:37;;;;;;;7.40;2.80;;;10.60;99.90;;;;;;5002465;28;20050;-68
2021/05/13 06:10:06;;;;;;;6.90;2.95;;;10.60;99.90;;;;;;5003623;28;20050;-68
2021/05/13 06:12:34;;;;;;;8.57;3.15;;;10.70;99.90;;;;;;5002630;28;20469;-68
2021/05/13 06:15:00;;;;;;;12.25;3.08;;;10.70;99.90;;;;;;5001887;28;20050;-68
2021/05/13 06:17:29;;;;;;;11.85;3.33;;;10.70;99.90;;;;;;4995684;28;20111;-68
2021/05/13 06:20:00;;;;;;;16.17;3.58;;;10.90;99.90;;;;;;5002233;28;20049;-68
2021/05/13 06:22:29;;;;;;;15.30;4.55;;;10.90;99.90;;;;;;5004223;28;20050;-68
2021/05/13 06:24:57;;;;;;;10.15;3.95;;;10.90;99.90;;;;;;5002962;28;20046;-68
2021/05/13 06:27:23;;;;;;;18.10;4.45;;;11.10;99.90;;;;;;5004501;28;20057;-68
2021/05/13 06:29:55;;;;;;;10.57;4.50;;;11.00;99.90;;;;;;5001809;28;20053;-68
2021/05/13 06:32:22;;;;;;;15.80;4.70;;;11.00;99.90;;;;;;5004213;28;20042;-69
2021/05/13 06:34:47;;;;;;;11.23;4.45;;;11.10;99.90;;;;;;5001187;28;20057;-69
2021/05/13 06:37:13;;;;;;;15.30;4.85;;;11.20;99.90;;;;;;4994292;28;20042;-69
2021/05/13 06:39:39;;;;;;;21.42;5.28;;;11.10;99.90;;;;;;5003408;28;20050;-69
2021/05/13 06:42:07;;;;;;;17.25;5.93;;;11.30;99.90;;;;;;5003537;28;20045;-69
2021/05/13 06:44:35;;;;;;;16.55;6.05;;;11.20;99.90;;;;;;5000696;28;20141;-69
2021/05/13 06:47:01;;;;;;;12.68;4.68;;;11.40;99.90;;;;;;5004220;28;20057;-69
2021/05/13 06:49:29;;;;;;;;;;;11.70;99.90;;;;;;5004039;28;20066;-69
2021/05/13 06:52:16;;;;;;;16.30;6.07;;;11.60;99.90;;;;;;5003319;28;20009;-69
2021/05/13 06:54:43;;;;;;;16.27;5.40;;;11.50;99.90;;;;;;5003090;28;20046;-69
2021/05/13 06:57:10;;;;;;;15.77;5.60;;;11.60;99.90;;;;;;5003439;28;20061;-69
2021/05/13 06:59:45;;;;;;;14.77;5.80;;;11.50;99.90;;;;;;5003433;28;20057;-69
2021/05/13 07:02:12;;;;;;;17.25;7.10;;;11.40;99.90;;;;;;5003725;28;20050;-69
2021/05/13 07:04:42;;;;;;;19.20;6.53;;;11.30;99.90;;;;;;5003540;28;20061;-68
2021/05/13 07:07:07;;;;;;;11.52;5.70;;;11.40;99.90;;;;;;5003504;28;20046;-69
2021/05/13 07:09:34;;;;;;;11.00;5.75;;;11.60;99.90;;;;;;5002718;28;20046;-69
2021/05/13 07:12:00;;;;;;;16.10;6.38;;;11.80;99.90;;;;;;5003638;28;20470;-68
2021/05/13 07:14:26;;;;;;;15.85;5.65;;;11.90;99.90;;;;;;5002008;28;20057;-69
2021/05/13 07:16:52;;;;;;;14.23;5.53;;;12.00;99.90;;;;;;5003435;28;20076;-69
2021/05/13 07:19:18;;;;;;;16.15;6.07;;;12.20;99.90;;;;;;5018175;28;20073;-69
2021/05/13 07:21:44;;;;;;;12.57;5.30;;;12.10;99.90;;;;;;5003353;28;20065;-70
2021/05/13 07:24:10;;;;;;;13.77;5.28;;;12.30;99.90;;;;;;5002606;28;20058;-69
2021/05/13 07:26:36;;;;;;;17.67;6.32;;;12.50;99.90;;;;;;5003670;28;20053;-70
2021/05/13 07:29:03;;;;;;;13.80;5.30;;;12.80;99.90;;;;;;5007148;28;20050;-70
2021/05/13 07:31:29;;;;;;;13.20;5.50;;;12.70;99.90;;;;;;5005740;28;20042;-70
2021/05/13 07:33:55;;;;;;;16.23;5.38;;;12.80;99.90;;;;;;4998715;28;20426;-70
2021/05/13 07:36:21;;;;;;;10.00;3.70;;;13.00;99.90;;;;;;4999972;28;20554;-70
2021/05/13 07:38:47;;;;;;;11.23;3.47;;;13.40;99.90;;;;;;5006102;28;20042;-69
2021/05/13 07:41:15;;;;;;;8.85;4.30;;;13.30;99.90;;;;;;4998970;28;20066;-70
2021/05/13 07:43:45;;;;;;;11.75;3.92;;;13.40;99.90;;;;;;5006065;28;20050;-69
2021/05/13 07:46:12;;;;;;;10.20;3.15;;;13.10;99.90;;;;;;4994727;28;20054;-69
2021/05/13 07:48:38;;;;;;;9.00;3.17;;;13.00;99.90;;;;;;5001146;28;20042;-69
2021/05/13 07:51:05;;;;;;;14.65;4.63;;;12.70;99.90;;;;;;5006968;28;20046;-69
2021/05/13 07:53:31;;;;;;;8.30;2.42;;;12.70;99.90;;;;;;5001051;28;20073;-69
2021/05/13 07:55:57;;;;;;;10.10;3.30;;;12.80;99.90;;;;;;5006068;28;20057;-69
2021/05/13 07:58:23;;;;;;;11.15;3.30;;;13.00;99.90;;;;;;5006516;28;20054;-69
2021/05/13 08:00:49;;;;;;;8.68;4.05;;;13.00;99.90;;;;;;5006317;28;20061;-69
2021/05/13 08:03:15;;;;;;;12.07;2.80;;;13.20;99.90;;;;;;5006798;28;20042;-69
2021/05/13 08:05:41;;;;;;;10.20;2.78;;;13.50;99.90;;;;;;5006497;28;20066;-69
2021/05/13 08:08:07;;;;;;;10.93;3.50;;;13.60;99.90;;;;;;5006361;28;20069;-69
2021/05/13 08:10:33;;;;;;;8.68;2.08;;;13.50;99.90;;;;;;5006191;28;20042;-69
2021/05/13 08:12:58;;;;;;;14.13;3.97;;;13.70;99.90;;;;;;5006301;28;20105;-69
2021/05/13 08:15:24;;;;;;;12.23;2.95;;;13.80;99.90;;;;;;5006491;28;20048;-69
2021/05/13 08:17:51;;;;;;;7.63;2.25;;;14.20;99.90;;;;;;4999795;28;20054;-69
2021/05/13 08:20:17;;;;;;;14.02;3.10;;;14.10;99.90;;;;;;5006303;28;20498;-69
2021/05/13 08:22:45;;;;;;;10.82;2.70;;;13.90;99.90;;;;;;4999214;28;20155;-69
2021/05/13 08:25:14;;;;;;;5.43;1.80;;;13.90;99.90;;;;;;5005172;28;20043;-69
2021/05/13 08:27:40;;;;;;;6.38;2.50;;;14.00;99.90;;;;;;5006352;28;20042;-68
2021/05/13 08:30:07;;;;;;;5.85;1.80;;;14.00;99.90;;;;;;5005742;28;20077;-68
2021/05/13 08:32:34;;;;;;;7.97;2.40;;;14.10;99.90;;;;;;5005774;28;20042;-68
2021/05/13 08:35:00;;;;;;;5.68;1.70;;;14.20;99.90;;;;;;5005238;28;20509;-68
2021/05/13 08:37:26;;;;;;;7.93;2.13;;;14.10;99.90;;;;;;5005880;28;20068;-68
2021/05/13 08:39:52;;;;;;;6.22;1.48;;;14.20;99.90;;;;;;5004801;28;20042;-68
2021/05/13 08:42:18;;;;;;;3.50;0.70;;;14.00;98.80;;;;;;5004836;28;20098;-68
2021/05/13 08:44:45;;;;;;;3.00;1.50;;;13.90;98.10;;;;;;4999107;28;20042;-68
2021/05/13 08:47:12;;;;;;;9.93;1.88;;;13.60;99.40;;;;;;5005489;28;20061;-68
2021/05/13 08:49:39;;;;;;;3.90;1.60;;;13.80;99.80;;;;;;5005980;28;20042;-68
2021/05/13 08:52:12;;;;;;;;;;;13.70;99.90;;;;;;5006149;28;20053;-68
2021/05/13 08:54:55;;;;;;;5.65;1.67;;;13.70;99.90;;;;;;5005604;28;19925;-68
2021/05/13 08:57:21;;;;;;;5.32;2.00;;;13.80;99.90;;;;;;5000837;28;20054;-69
2021/05/13 08:59:47;;;;;;;4.28;1.90;;;14.20;99.90;;;;;;4993874;28;20038;-69
2021/05/13 09:02:17;;;;;;;7.85;1.90;;;14.50;99.90;;;;;;5000716;28;20089;-69
2021/05/13 09:04:48;;;;;;;6.60;1.92;;;14.40;99.90;;;;;;5005012;28;20109;-69
2021/05/13 09:07:22;;;;;;;5.43;1.85;;;14.40;99.90;;;;;;5005235;28;20480;-69
2021/05/13 09:10:13;;;;;;;4.50;1.50;;;14.60;99.90;;;;;;5004835;28;20044;-69
2021/05/13 09:12:45;;;;;;;6.55;1.88;;;14.40;99.20;;;;;;5000637;28;20124;-69
2021/05/13 09:15:20;;;;;;;5.60;1.63;;;14.30;99.90;;;;;;4993551;28;20049;-69
2021/05/13 09:18:01;;;;;;;3.88;1.67;;;14.70;99.90;;;;;;5000757;28;20065;-68
2021/05/13 09:20:29;;;;;;;4.05;2.00;;;14.70;99.90;;;;;;5004860;28;20053;-69
2021/05/13 09:23:22;;;;;;;4.28;2.00;;;14.50;99.70;;;;;;5005187;28;20494;-69
2021/05/13 09:26:11;;;;;;;3.13;1.42;;;14.30;99.60;;;;;;5004643;28;20042;-68
2021/05/13 09:28:38;;;;;;;4.05;1.35;;;14.40;99.10;;;;;;4992534;28;20043;-68
2021/05/13 09:31:04;;;;;;;3.20;1.40;;;14.30;99.30;;;;;;5004891;28;20074;-68
2021/05/13 09:33:41;;;;;;;6.90;2.10;;;14.30;99.20;;;;;;5000610;28;20062;-68
2021/05/13 09:36:25;;;;;;;3.50;1.70;;;14.20;98.70;;;;;;4997896;28;20050;-68
2021/05/13 09:38:51;;;;;;;5.25;1.50;;;13.90;98.90;;;;;;4992885;28;20101;-69
2021/05/13 09:41:31;;;;;;;5.47;2.05;;;14.10;99.00;;;;;;4998585;28;20039;-69
2021/05/13 09:43:58;;;;;;;10.40;2.15;;;14.00;99.70;;;;;;4993046;28;20069;-68
2021/05/13 09:46:33;;;;;;;6.95;1.98;;;14.20;99.90;;;;;;4998441;28;20042;-68
2021/05/13 09:49:00;;;;;;;4.68;2.03;;;14.00;99.50;;;;;;4997358;28;20057;-68
2021/05/13 09:51:34;;;;;;;3.90;1.35;;;13.80;99.60;;;;;;4998292;28;20102;-68
2021/05/13 09:54:15;;;;;;;6.93;2.00;;;14.20;98.80;;;;;;4999950;28;20564;-68
2021/05/13 09:56:49;;;;;;;5.18;1.88;;;14.10;99.10;;;;;;4997092;28;20050;-69
2021/05/13 09:59:35;;;;;;;8.77;1.92;;;14.10;99.60;;;;;;5001502;28;20065;-68
2021/05/13 10:02:04;;;;;;;3.95;1.55;;;13.90;99.90;;;;;;5004185;28;20054;-69
2021/05/13 10:04:30;;;;;;;6.72;1.63;;;13.90;99.40;;;;;;5004423;28;20050;-69
2021/05/13 10:06:56;;;;;;;4.28;1.70;;;14.30;98.60;;;;;;5004551;28;20057;-69
2021/05/13 10:09:22;;;;;;;5.82;1.98;;;14.20;99.40;;;;;;5003354;28;20141;-69
2021/05/13 10:11:57;;;;;;;6.45;2.58;;;14.50;99.80;;;;;;5004163;28;20042;-70
2021/05/13 10:14:25;;;;;;;2.80;1.40;;;14.60;99.10;;;;;;5003626;28;20084;-69
2021/05/13 10:16:53;;;;;;;6.03;1.88;;;14.50;96.90;;;;;;5004242;28;20057;-68
2021/05/13 10:19:27;;;;;;;8.95;2.40;;;14.50;97.60;;;;;;4999184;28;20054;-68
2021/05/13 10:21:54;;;;;;;5.78;2.60;;;14.10;98.20;;;;;;5003908;28;20038;-68
2021/05/13 10:24:20;;;;;;;5.25;2.50;;;14.00;99.20;;;;;;5003412;28;20203;-68
2021/05/13 10:26:48;;;;;;;3.58;2.05;;;14.20;99.60;;;;;;5003745;28;20276;-68
2021/05/13 10:29:20;;;;;;;7.90;3.38;;;14.40;99.00;;;;;;5003590;28;20530;-68
2021/05/13 10:32:10;;;;;;;6.00;2.90;;;14.20;98.90;;;;;;5004047;28;20038;-67
2021/05/13 10:34:43;;;;;;;6.55;3.53;;;14.30;99.20;;;;;;5003201;28;20042;-67
2021/05/13 10:37:13;;;;;;;12.18;4.03;;;14.10;99.40;;;;;;4998006;28;20070;-67
2021/05/13 10:40:08;;;;;;;8.35;3.60;;;14.00;99.80;;;;;;4997192;28;20109;-67
2021/05/13 10:42:36;;;;;;;5.78;3.50;;;14.10;99.90;;;;;;5003467;28;20046;-68
2021/05/13 10:45:30;;;;;;;8.35;4.05;;;14.10;99.90;;;;;;5003368;28;20046;-68
2021/05/13 10:48:27;;;;;;;7.63;3.85;;;13.90;99.90;;;;;;5003673;28;20074;-68
2021/05/13 10:51:01;;;;;;;10.40;3.38;;;14.50;99.50;;;;;;5003492;28;20066;-68
2021/05/13 10:53:40;;;;;;;7.05;2.67;;;14.70;99.10;;;;;;5001306;28;20523;-68
2021/05/13 10:56:22;;;;;;;8.18;3.38;;;15.00;98.90;;;;;;5003430;28;20049;-69
2021/05/13 10:59:04;;;;;;;7.15;3.80;;;14.60;97.60;;;;;;5003694;28;20053;-69
2021/05/13 11:01:43;;;;;;;7.82;3.83;;;14.80;99.00;;;;;;5004095;28;20050;-69
2021/05/13 11:04:21;;;;;;;8.82;3.95;;;14.90;98.70;;;;;;5009751;28;20070;-68
2021/05/13 11:06:48;;;;;;;6.82;2.83;;;14.80;98.00;;;;;;5000066;28;20064;-69
2021/05/13 11:09:39;;;;;;;8.43;3.83;;;14.70;98.70;;;;;;5005863;28;20382;-69
2021/05/13 11:12:19;;;;;;;7.20;3.95;;;14.90;99.60;;;;;;5000592;28;20297;-68
2021/05/13 11:15:11;;;;;;;6.43;2.72;;;15.20;99.40;;;;;;5007354;28;20046;-68
2021/05/13 11:20:34;;;;;;;5.13;2.38;;;14.90;98.10;;;;;;5004967;28;20043;-69
2021/05/13 11:23:19;;;;;;;9.60;3.28;;;15.10;97.80;;;;;;5006446;28;20165;-69
2021/05/13 11:25:52;;;;;;;12.77;3.63;;;15.00;98.80;;;;;;5000796;28;20050;-68
2021/05/13 11:28:27;;;;;;;7.95;2.70;;;15.40;99.30;;;;;;5008114;28;20042;-69
2021/05/13 11:31:03;;;;;;;8.35;3.13;;;15.50;99.60;;;;;;5009502;28;20040;-69
2021/05/13 11:33:37;;;;;;;7.43;2.70;;;15.40;98.40;;;;;;5009801;28;20057;-69
2021/05/13 11:36:08;;;;;;;5.82;2.78;;;15.50;98.50;;;;;;5000001;28;20107;-69
2021/05/13 11:38:34;;;;;;;4.40;2.25;;;15.40;98.50;;;;;;5003885;28;20077;-69
2021/05/13 11:41:00;;;;;;;5.13;2.28;;;15.80;98.40;;;;;;5007796;28;20429;-69
2021/05/13 11:43:27;;;;;;;5.75;2.40;;;16.50;97.80;;;;;;5004572;28;20077;-69
2021/05/13 11:45:58;;;;;;;5.13;2.38;;;16.30;97.50;;;;;;5009418;28;20048;-69
2021/05/13 11:48:38;;;;;;;6.68;2.70;;;16.10;97.00;;;;;;5009333;28;20085;-69
2021/05/13 11:51:10;;;;;;;7.57;2.20;;;16.40;98.10;;;;;;5009550;28;20058;-69
2021/05/13 11:53:41;;;;;;;5.45;2.28;;;17.10;96.30;;;;;;5009413;28;20381;-69
2021/05/13 11:56:08;;;;;;;7.05;2.30;;;17.00;96.00;;;;;;5007074;28;20117;-69
2021/05/13 11:58:41;;;;;;;9.10;2.22;;;16.70;96.10;;;;;;5009566;28;20049;-69
2021/05/13 12:01:26;;;;;;;5.07;2.10;;;16.70;95.40;;;;;;5009455;28;20050;-69
2021/05/13 12:03:55;;;;;;;7.50;2.38;;;17.10;95.90;;;;;;5009653;28;20049;-69
2021/05/13 12:06:21;;;;;;;10.60;2.20;;;17.20;95.20;;;;;;5009036;28;20602;-69
2021/05/13 12:08:47;;;;;;;5.13;1.60;;;16.60;96.10;;;;;;5009657;28;20439;-69
2021/05/13 12:11:18;;;;;;;6.85;2.67;;;17.30;94.40;;;;;;5008950;28;20510;-69
2021/05/13 12:13:45;;;;;;;4.57;2.05;;;17.00;94.50;;;;;;5000965;28;20102;-69
2021/05/13 12:16:11;;;;;;;;;;;17.40;95.10;;;;;;5003622;28;20486;-69
2021/05/13 12:18:37;;;;;;;7.20;2.13;;;17.10;95.40;;;;;;5006404;28;19922;-69
2021/05/13 12:21:03;;;;;;;8.45;1.85;;;17.60;94.10;;;;;;5006185;28;20073;-69
2021/05/13 12:23:29;;;;;;;7.47;2.00;;;17.40;94.50;;;;;;5006261;28;20406;-69
2021/05/13 12:25:55;;;;;;;5.07;1.90;;;18.00;93.60;;;;;;5005698;28;20050;-69
2021/05/13 12:28:21;;;;;;;4.80;1.88;;;18.10;94.20;;;;;;5021137;28;20046;-69
2021/05/13 12:30:54;;;;;;;5.75;1.80;;;19.00;93.40;;;;;;5005938;28;20430;-69
2021/05/13 12:33:29;;;;;;;5.38;1.90;;;17.70;90.60;;;;;;5006133;28;20050;-69
2021/05/13 12:35:55;;;;;;;4.20;1.98;;;17.60;92.60;;;;;;5005008;28;20046;-70
2021/05/13 12:38:25;;;;;;;8.83;2.10;;;18.20;93.60;;;;;;5003288;28;20050;-69
2021/05/13 12:41:16;;;;;;;5.70;1.83;;;19.30;93.30;;;;;;4995177;28;20054;-69
2021/05/13 12:43:47;;;;;;;4.07;1.80;;;18.70;90.30;;;;;;5004929;28;20046;-69
2021/05/13 12:46:20;;;;;;;5.53;1.95;;;18.40;90.90;;;;;;5002781;28;20073;-70
2021/05/13 12:48:46;;;;;;;3.40;1.95;;;18.70;90.30;;;;;;5000992;28;20046;-69
2021/05/13 12:51:16;;;;;;;6.38;2.05;;;18.00;90.40;;;;;;5005586;28;20046;-69
2021/05/13 12:53:50;;;;;;;6.60;2.80;;;18.40;91.90;;;;;;5005462;28;20051;-69
2021/05/13 12:56:33;;;;;;;4.50;2.67;;;17.80;92.60;;;;;;5005234;28;20387;-69
2021/05/13 12:59:11;;;;;;;4.88;2.20;;;18.20;91.80;;;;;;5005689;28;20069;-69
2021/05/13 13:01:41;;;;;;;6.15;2.83;;;18.70;92.30;;;;;;5005545;28;20049;-70
2021/05/13 13:04:09;;;;;;;4.53;2.45;;;19.30;90.20;;;;;;5005119;28;20050;-70